createdAt,value
2022-11-01T00:02:14.883Z,13.37
2022-11-01T00:04:41.702Z,13.39
2022-11-01T00:07:08.509Z,13.40
2022-11-01T00:09:35.409Z,13.41
2022-11-01T00:12:02.204Z,13.41
2022-11-01T00:14:28.952Z,13.41
2022-11-01T00:16:55.870Z,13.36
2022-11-01T00:19:22.789Z,13.34
2022-11-01T00:21:49.781Z,13.28
2022-11-01T00:24:16.674Z,13.29
2022-11-01T00:26:43.704Z,13.35
2022-11-01T00:29:12.648Z,13.38
2022-11-01T00:31:39.864Z,13.35
2022-11-01T00:34:06.854Z,13.34
2022-11-01T00:36:35.599Z,13.34
2022-11-01T00:39:04.077Z,13.29
2022-11-01T00:41:31.019Z,13.29
2022-11-01T00:43:57.824Z,13.25
2022-11-01T00:46:24.639Z,13.19
2022-11-01T00:48:51.476Z,13.16
2022-11-01T00:51:18.226Z,13.20
2022-11-01T00:53:44.977Z,13.16
2022-11-01T00:56:11.802Z,13.14
2022-11-01T00:58:38.690Z,13.10
2022-11-01T01:01:05.650Z,13.10
2022-11-01T01:03:32.881Z,13.10
2022-11-01T01:05:59.707Z,13.11
2022-11-01T01:08:27.597Z,13.13
2022-11-01T01:10:54.368Z,13.15
2022-11-01T01:13:22.093Z,13.11
2022-11-01T01:15:49.154Z,13.02
2022-11-01T01:18:17.160Z,13.02
2022-11-01T01:20:44.169Z,13.02
2022-11-01T01:23:10.980Z,13.07
2022-11-01T01:25:43.380Z,13.06
2022-11-01T01:28:10.800Z,13.08
2022-11-01T01:30:41.741Z,13.10
2022-11-01T01:33:09.819Z,13.07
2022-11-01T01:35:39.065Z,13.06
2022-11-01T01:38:06.857Z,13.01
2022-11-01T01:40:35.424Z,13.00
2022-11-01T01:43:02.338Z,13.07
2022-11-01T01:45:41.070Z,13.10
2022-11-01T01:48:27.593Z,13.14
2022-11-01T01:51:04.461Z,13.18
2022-11-01T01:53:44.542Z,13.22
2022-11-01T01:56:30.563Z,13.19
2022-11-01T01:59:15.824Z,13.19
2022-11-01T02:01:42.769Z,13.17
2022-11-01T02:04:22.455Z,13.13
2022-11-01T02:06:49.763Z,13.10
2022-11-01T02:09:18.248Z,13.11
2022-11-01T02:11:46.628Z,13.13
2022-11-01T02:14:13.642Z,13.14
2022-11-01T02:17:09.589Z,13.18
2022-11-01T02:20:32.688Z,13.16
2022-11-01T02:23:24.308Z,13.10
2022-11-01T02:26:37.946Z,13.12
2022-11-01T02:29:39.349Z,13.14
2022-11-01T02:32:25.331Z,13.21
2022-11-01T02:35:06.140Z,13.26
2022-11-01T02:38:15.373Z,13.31
2022-11-01T02:40:59.855Z,13.35
2022-11-01T02:44:05.773Z,13.35
2022-11-01T02:46:57.758Z,13.34
2022-11-01T02:49:28.652Z,13.35
2022-11-01T02:51:58.392Z,13.25
2022-11-01T02:54:34.295Z,13.21
2022-11-01T02:57:34.970Z,13.27
2022-11-01T03:00:22.332Z,13.19
2022-11-01T03:03:14.446Z,13.10
2022-11-01T03:06:04.410Z,13.09
2022-11-01T03:08:48.968Z,13.09
2022-11-01T03:11:35.972Z,13.16
2022-11-01T03:14:25.253Z,13.20
2022-11-01T03:17:36.196Z,13.24
2022-11-01T03:20:22.640Z,13.26
2022-11-01T03:22:58.733Z,13.25
2022-11-01T03:25:41.608Z,13.25
2022-11-01T03:28:23.687Z,13.25
2022-11-01T03:31:02.158Z,13.17
2022-11-01T03:33:33.816Z,13.18
2022-11-01T03:36:13.647Z,13.24
2022-11-01T03:38:57.456Z,13.29
2022-11-01T03:41:29.129Z,13.32
2022-11-01T03:43:56.587Z,13.31
2022-11-01T03:46:23.877Z,13.37
2022-11-01T03:48:50.583Z,13.39
2022-11-01T03:51:17.943Z,13.34
2022-11-01T03:53:44.728Z,13.26
2022-11-01T03:56:11.609Z,13.24
2022-11-01T03:58:45.130Z,13.27
2022-11-01T04:01:15.714Z,13.23
2022-11-01T04:03:44.018Z,13.21
2022-11-01T04:06:11.117Z,13.19
2022-11-01T04:08:38.149Z,13.21
2022-11-01T04:11:05.284Z,13.20
2022-11-01T04:13:32.204Z,13.29
2022-11-01T04:16:17.951Z,13.33
2022-11-01T04:19:13.946Z,13.34
2022-11-01T04:21:41.453Z,13.29
2022-11-01T04:24:08.723Z,13.26
2022-11-01T04:26:35.993Z,13.24
2022-11-01T04:29:03.007Z,13.24
2022-11-01T04:31:36.509Z,13.17
2022-11-01T04:34:05.453Z,13.16
2022-11-01T04:36:32.244Z,13.13
2022-11-01T04:38:59.397Z,13.18
2022-11-01T04:41:29.140Z,13.19
2022-11-01T04:43:59.495Z,13.18
2022-11-01T04:46:31.591Z,13.24
2022-11-01T04:49:01.468Z,13.29
2022-11-01T04:51:28.466Z,13.33
2022-11-01T04:53:55.247Z,13.38
2022-11-01T04:56:22.103Z,13.41
2022-11-01T04:58:48.833Z,13.49
2022-11-01T05:01:15.826Z,13.58
2022-11-01T05:03:43.360Z,13.63
2022-11-01T05:06:10.761Z,13.63
2022-11-01T05:08:37.605Z,13.60
2022-11-01T05:11:04.581Z,13.59
2022-11-01T05:13:31.535Z,13.59
2022-11-01T05:18:45.076Z,13.71
2022-11-01T05:21:12.221Z,13.77
2022-11-01T05:23:39.341Z,13.81
2022-11-01T05:26:06.482Z,13.85
2022-11-01T05:28:33.584Z,13.88
2022-11-01T05:31:00.714Z,13.93
2022-11-01T05:33:27.475Z,13.99
2022-11-01T05:35:54.331Z,14.12
2022-11-01T05:38:21.210Z,14.22
2022-11-01T05:40:48.161Z,14.25
2022-11-01T05:43:15.136Z,14.32
2022-11-01T05:45:42.014Z,14.41
2022-11-01T05:48:09.263Z,14.47
2022-11-01T05:50:36.137Z,14.52
2022-11-01T05:53:10.367Z,14.55
2022-11-01T05:55:38.885Z,14.62
2022-11-01T05:58:06.569Z,14.64
2022-11-01T06:00:34.747Z,14.60
2022-11-01T06:03:02.348Z,14.62
2022-11-01T06:05:30.573Z,14.70
2022-11-01T06:08:00.505Z,14.84
2022-11-01T06:10:27.957Z,14.97
2022-11-01T06:12:55.612Z,14.98
2022-11-01T06:15:23.111Z,14.97
2022-11-01T06:17:57.393Z,14.98
2022-11-01T06:20:29.611Z,15.08
2022-11-01T06:23:00.359Z,15.12
2022-11-01T06:25:27.938Z,15.13
2022-11-01T06:27:54.927Z,15.09
2022-11-01T06:30:21.781Z,15.15
2022-11-01T06:32:48.579Z,15.23
2022-11-01T06:35:15.450Z,15.21
2022-11-01T06:37:42.281Z,15.15
2022-11-01T06:40:10.909Z,15.05
2022-11-01T06:42:46.588Z,14.96
2022-11-01T06:45:14.234Z,14.96
2022-11-01T06:47:46.120Z,15.01
2022-11-01T06:50:12.931Z,15.05
2022-11-01T06:52:39.677Z,15.08
2022-11-01T06:55:07.201Z,15.08
2022-11-01T06:57:34.130Z,15.00
2022-11-01T07:00:00.922Z,14.92
2022-11-01T07:02:29.899Z,14.82
2022-11-01T07:04:56.930Z,14.80
2022-11-01T07:07:24.095Z,14.84
2022-11-01T07:09:50.967Z,14.91
2022-11-01T07:12:18.134Z,14.96
2022-11-01T07:14:44.868Z,14.95
2022-11-01T07:17:11.623Z,14.88
2022-11-01T07:19:38.487Z,14.81
2022-11-01T07:22:06.077Z,14.82
2022-11-01T07:24:32.837Z,14.81
2022-11-01T07:26:59.627Z,14.79
2022-11-01T07:29:26.412Z,14.85
2022-11-01T07:31:53.205Z,14.85
2022-11-01T07:34:19.965Z,14.84
2022-11-01T07:36:46.754Z,14.89
2022-11-01T07:39:13.862Z,15.11
2022-11-01T07:41:40.619Z,15.26
2022-11-01T07:44:07.592Z,15.40
2022-11-01T07:46:34.431Z,15.53
2022-11-01T07:49:01.346Z,15.67
2022-11-01T07:51:28.184Z,15.69
2022-11-01T07:53:55.220Z,15.69
2022-11-01T07:56:22.644Z,15.69
2022-11-01T07:58:49.426Z,15.68
2022-11-01T08:01:16.277Z,15.62
2022-11-01T08:03:43.214Z,15.59
2022-11-01T08:06:10.044Z,15.56
2022-11-01T08:08:36.920Z,15.55
2022-11-01T08:11:04.076Z,15.56
2022-11-01T08:13:30.975Z,15.59
2022-11-01T08:16:02.841Z,15.60
2022-11-01T08:18:30.071Z,15.62
2022-11-01T08:20:59.201Z,15.64
2022-11-01T08:23:26.262Z,15.69
2022-11-01T08:25:55.235Z,15.76
2022-11-01T08:28:23.300Z,15.86
2022-11-01T08:31:15.392Z,15.99
2022-11-01T08:33:42.201Z,16.11
2022-11-01T08:36:09.087Z,16.22
2022-11-01T08:38:35.861Z,16.32
2022-11-01T08:41:02.675Z,16.41
2022-11-01T08:43:29.445Z,16.47
2022-11-01T08:46:00.286Z,16.55
2022-11-01T08:48:27.085Z,16.61
2022-11-01T08:50:53.966Z,16.66
2022-11-01T08:53:24.954Z,16.79
2022-11-01T08:55:56.663Z,16.89
2022-11-01T08:58:23.781Z,17.15
2022-11-01T09:00:50.649Z,17.44
2022-11-01T09:03:17.511Z,17.66
2022-11-01T09:05:44.352Z,17.64
2022-11-01T09:08:11.150Z,17.72
2022-11-01T09:10:38.167Z,17.96
2022-11-01T09:13:05.298Z,18.07
2022-11-01T09:15:32.844Z,18.04
2022-11-01T09:18:04.927Z,18.40
2022-11-01T09:20:31.648Z,18.78
2022-11-01T09:22:58.415Z,18.99
2022-11-01T09:25:25.281Z,19.05
2022-11-01T09:27:52.061Z,18.96
2022-11-01T09:30:19.099Z,18.82
2022-11-01T09:32:46.019Z,18.72
2022-11-01T09:35:12.749Z,18.70
2022-11-01T09:37:39.525Z,18.70
2022-11-01T09:40:07.745Z,18.74
2022-11-01T09:42:42.008Z,18.69
2022-11-01T09:45:20.907Z,18.58
2022-11-01T09:47:53.954Z,18.49
2022-11-01T09:50:30.228Z,18.43
2022-11-01T09:52:58.144Z,18.35
2022-11-01T09:55:51.064Z,18.29
2022-11-01T09:58:54.923Z,18.26
2022-11-01T10:01:41.225Z,18.38
2022-11-01T10:04:48.567Z,18.23
2022-11-01T10:07:42.103Z,18.16
2022-11-01T10:10:38.128Z,17.88
2022-11-01T10:13:46.939Z,17.80
2022-11-01T10:16:43.598Z,17.81
2022-11-01T10:19:21.670Z,17.81
2022-11-01T10:21:53.102Z,17.89
2022-11-01T10:24:37.744Z,18.01
2022-11-01T10:27:12.793Z,18.17
2022-11-01T10:30:07.432Z,18.35
2022-11-01T10:33:02.411Z,18.35
2022-11-01T10:35:35.167Z,18.51
2022-11-01T10:42:12.638Z,18.91
2022-11-01T10:44:55.256Z,18.97
2022-11-01T10:47:25.333Z,18.92
2022-11-01T10:50:07.916Z,18.72
2022-11-01T10:52:57.484Z,18.51
2022-11-01T10:55:50.715Z,18.15
2022-11-01T10:58:17.464Z,17.95
2022-11-01T11:00:46.187Z,17.77
2022-11-01T11:03:25.938Z,17.59
2022-11-01T11:05:56.153Z,17.34
2022-11-01T11:08:24.970Z,17.25
2022-11-01T11:10:53.201Z,17.21
2022-11-01T11:13:26.504Z,17.13
2022-11-01T11:16:02.366Z,17.15
2022-11-01T11:18:36.581Z,17.22
2022-11-01T11:21:08.739Z,17.30
2022-11-01T11:23:44.252Z,17.41
2022-11-01T11:26:21.141Z,17.53
2022-11-01T11:28:57.462Z,17.72
2022-11-01T11:31:31.556Z,17.92
2022-11-01T11:34:17.912Z,18.00
2022-11-01T11:36:49.743Z,18.31
2022-11-01T11:39:31.642Z,18.77
2022-11-01T11:42:22.252Z,18.60
2022-11-01T11:44:55.641Z,18.44
2022-11-01T11:47:28.259Z,18.17
2022-11-01T11:49:58.222Z,18.07
2022-11-01T11:52:39.680Z,17.86
2022-11-01T11:55:40.097Z,17.72
2022-11-01T11:58:18.360Z,17.66
2022-11-01T12:00:52.383Z,17.83
2022-11-01T12:03:21.165Z,18.47
2022-11-01T12:06:01.821Z,18.02
2022-11-01T12:08:47.475Z,17.76
2022-11-01T12:11:15.648Z,17.74
2022-11-01T12:14:02.743Z,18.33
2022-11-01T12:16:30.201Z,18.42
2022-11-01T12:19:01.001Z,18.36
2022-11-01T12:21:34.815Z,18.63
2022-11-01T12:24:44.821Z,19.11
2022-11-01T12:27:24.185Z,19.64
2022-11-01T12:30:04.896Z,19.99
2022-11-01T12:32:51.475Z,20.19
2022-11-01T12:35:37.772Z,20.52
2022-11-01T12:38:33.801Z,20.10
2022-11-01T12:41:28.147Z,20.29
2022-11-01T12:44:29.083Z,20.77
2022-11-01T12:47:21.740Z,20.58
2022-11-01T12:50:19.310Z,19.98
2022-11-01T12:53:00.882Z,19.56
2022-11-01T12:55:35.890Z,19.39
2022-11-01T12:58:06.978Z,19.99
2022-11-01T13:01:08.375Z,20.88
2022-11-01T13:04:16.512Z,20.78
2022-11-01T13:07:17.317Z,20.12
2022-11-01T13:10:13.620Z,20.52
2022-11-01T13:13:20.843Z,21.06
2022-11-01T13:16:10.963Z,21.19
2022-11-01T13:18:56.073Z,21.37
2022-11-01T13:21:50.729Z,21.59
2022-11-01T13:24:38.175Z,21.62
2022-11-01T13:27:32.078Z,21.51
2022-11-01T13:30:18.384Z,21.24
2022-11-01T13:33:18.025Z,21.01
2022-11-01T13:35:49.671Z,20.92
2022-11-01T13:38:47.337Z,20.94
2022-11-01T13:41:33.097Z,20.58
2022-11-01T13:44:16.699Z,19.98
2022-11-01T13:47:08.187Z,19.32
2022-11-01T13:50:01.175Z,18.96
2022-11-01T13:52:32.390Z,18.50
2022-11-01T13:55:32.261Z,18.17
2022-11-01T13:57:59.916Z,18.11
2022-11-01T14:00:44.142Z,17.98
2022-11-01T14:03:32.478Z,17.79
2022-11-01T14:06:09.319Z,17.75
2022-11-01T14:08:45.003Z,17.80
2022-11-01T14:11:45.721Z,17.76
2022-11-01T14:14:30.947Z,17.56
2022-11-01T14:17:16.122Z,17.38
2022-11-01T14:19:47.192Z,17.35
2022-11-01T14:22:24.193Z,17.32
2022-11-01T14:25:22.879Z,17.18
2022-11-01T14:28:16.984Z,17.13
2022-11-01T14:30:49.438Z,17.12
2022-11-01T14:33:20.690Z,17.12
2022-11-01T14:35:56.048Z,17.06
2022-11-01T14:38:38.430Z,16.99
2022-11-01T14:41:07.624Z,16.99
2022-11-01T14:43:53.263Z,16.93
2022-11-01T14:46:22.477Z,16.88
2022-11-01T14:49:20.752Z,16.85
2022-11-01T14:52:27.245Z,16.86
2022-11-01T14:54:58.215Z,16.88
2022-11-01T14:57:34.182Z,16.89
2022-11-01T15:00:22.853Z,16.87
2022-11-01T15:02:50.951Z,16.84
2022-11-01T15:05:17.827Z,16.89
2022-11-01T15:07:53.335Z,16.80
2022-11-01T15:10:21.074Z,16.76
2022-11-01T15:13:02.277Z,16.69
2022-11-01T15:15:36.762Z,16.66
2022-11-01T15:18:17.236Z,16.62
2022-11-01T15:20:54.890Z,16.55
2022-11-01T15:23:37.350Z,16.51
2022-11-01T15:26:14.528Z,16.52
2022-11-01T15:28:49.462Z,16.55
2022-11-01T15:31:16.865Z,16.52
2022-11-01T15:33:53.609Z,16.45
2022-11-01T15:36:27.440Z,16.38
2022-11-01T15:38:58.347Z,16.32
2022-11-01T15:41:35.134Z,16.35
2022-11-01T15:44:06.141Z,16.37
2022-11-01T15:46:40.419Z,16.34
2022-11-01T15:49:28.664Z,16.33
2022-11-01T15:52:05.120Z,16.28
2022-11-01T15:54:55.177Z,16.17
2022-11-01T15:57:31.091Z,16.06
2022-11-01T16:00:18.108Z,15.97
2022-11-01T16:03:10.834Z,15.86
2022-11-01T16:05:49.517Z,15.71
2022-11-01T16:08:27.794Z,15.53
2022-11-01T16:10:55.385Z,15.45
2022-11-01T16:13:22.240Z,15.29
2022-11-01T16:16:07.492Z,15.20
2022-11-01T16:18:45.002Z,15.11
2022-11-01T16:21:21.164Z,15.00
2022-11-01T16:24:15.653Z,14.94
2022-11-01T16:26:54.571Z,14.75
2022-11-01T16:29:49.186Z,14.72
2022-11-01T16:32:30.841Z,14.75
2022-11-01T16:35:00.067Z,14.72
2022-11-01T16:37:29.748Z,14.62
2022-11-01T16:39:58.961Z,14.42
2022-11-01T16:42:25.932Z,14.30
2022-11-01T16:44:56.520Z,14.14
2022-11-01T16:47:23.869Z,14.16
2022-11-01T16:49:54.082Z,14.05
2022-11-01T16:52:22.839Z,13.99
2022-11-01T16:54:51.020Z,14.11
2022-11-01T16:57:29.251Z,14.17
2022-11-01T16:59:56.507Z,14.15
2022-11-01T17:02:32.907Z,14.09
2022-11-01T17:05:23.643Z,14.03
2022-11-01T17:07:51.039Z,13.90
2022-11-01T17:10:25.702Z,13.85
2022-11-01T17:12:53.786Z,13.81
2022-11-01T17:15:20.660Z,13.78
2022-11-01T17:17:48.908Z,13.83
2022-11-01T17:20:26.577Z,13.86
2022-11-01T17:22:55.729Z,13.88
2022-11-01T17:25:28.788Z,13.97
2022-11-01T17:27:56.554Z,13.96
2022-11-01T17:30:23.408Z,13.73
2022-11-01T17:32:50.411Z,13.56
2022-11-01T17:35:18.620Z,13.51
2022-11-01T17:37:47.946Z,13.48
2022-11-01T17:40:27.243Z,13.49
2022-11-01T17:42:56.358Z,13.49
2022-11-01T17:45:23.236Z,13.44
2022-11-01T17:47:54.389Z,13.47
2022-11-01T17:50:22.074Z,13.56
2022-11-01T17:52:48.998Z,13.61
2022-11-01T17:55:16.005Z,13.62
2022-11-01T17:57:46.046Z,13.58
2022-11-01T18:00:13.607Z,13.28
2022-11-01T18:02:44.178Z,13.08
2022-11-01T18:05:11.279Z,13.07
2022-11-01T18:07:49.244Z,13.12
2022-11-01T18:10:36.309Z,13.12
2022-11-01T18:13:35.152Z,13.18
2022-11-01T18:16:33.283Z,13.19
2022-11-01T18:19:34.663Z,13.21
2022-11-01T18:22:31.981Z,13.19
2022-11-01T18:25:21.221Z,13.15
2022-11-01T18:27:48.095Z,13.03
2022-11-01T18:30:19.396Z,12.95
2022-11-01T18:32:54.014Z,12.80
2022-11-01T18:35:38.853Z,12.80
2022-11-01T18:38:28.214Z,12.77
2022-11-01T18:41:04.856Z,12.81
2022-11-01T18:43:37.802Z,12.79
2022-11-01T18:46:26.726Z,12.71
2022-11-01T18:49:12.730Z,12.65
2022-11-01T18:51:40.071Z,12.73
2022-11-01T18:54:09.836Z,12.78
2022-11-01T18:56:47.449Z,12.79
2022-11-01T18:59:32.837Z,12.67
2022-11-01T19:02:11.873Z,12.61
2022-11-01T19:04:46.378Z,12.64
2022-11-01T19:07:22.506Z,12.65
2022-11-01T19:10:01.639Z,12.59
2022-11-01T19:12:43.320Z,12.52
2022-11-01T19:15:11.548Z,12.42
2022-11-01T19:17:47.900Z,12.34
2022-11-01T19:20:24.376Z,12.38
2022-11-01T19:23:02.056Z,12.25
2022-11-01T19:25:38.183Z,12.18
2022-11-01T19:28:37.439Z,12.09
2022-11-01T19:31:23.589Z,12.01
2022-11-01T19:33:55.580Z,11.91
2022-11-01T19:36:40.852Z,12.03
2022-11-01T19:39:38.373Z,11.98
2022-11-01T19:42:29.312Z,11.89
2022-11-01T19:45:26.676Z,11.85
2022-11-01T19:47:53.478Z,11.92
2022-11-01T19:50:22.767Z,11.87
2022-11-01T19:52:53.192Z,11.74
2022-11-01T19:56:07.986Z,11.75
2022-11-01T19:58:49.361Z,11.85
2022-11-01T20:01:23.963Z,11.83
2022-11-01T20:03:57.935Z,11.79
2022-11-01T20:06:33.588Z,11.75
2022-11-01T20:09:18.513Z,11.75
2022-11-01T20:11:45.359Z,11.69
2022-11-01T20:14:13.195Z,11.60
2022-11-01T20:16:40.757Z,11.59
2022-11-01T20:19:08.412Z,11.60
2022-11-01T20:21:36.889Z,11.64
2022-11-01T20:24:04.002Z,11.70
2022-11-01T20:26:31.243Z,11.68
2022-11-01T20:28:58.749Z,11.63
2022-11-01T20:31:26.770Z,11.60
2022-11-01T20:33:54.596Z,11.60
2022-11-01T20:36:22.279Z,11.56
2022-11-01T20:38:49.889Z,11.44
2022-11-01T20:41:17.151Z,11.43
2022-11-01T20:43:44.321Z,11.34
2022-11-01T20:46:11.466Z,11.26
2022-11-01T20:48:38.362Z,11.26
2022-11-01T20:51:06.226Z,11.29
2022-11-01T20:53:34.810Z,11.38
2022-11-01T20:56:02.146Z,11.42
2022-11-01T20:58:29.028Z,11.40
2022-11-01T21:00:56.416Z,11.39
2022-11-01T21:03:24.627Z,11.25
2022-11-01T21:05:52.330Z,11.02
2022-11-01T21:08:22.632Z,11.02
2022-11-01T21:11:03.535Z,11.13
2022-11-01T21:13:39.016Z,11.11
2022-11-01T21:16:23.651Z,11.10
2022-11-01T21:18:54.685Z,11.17
2022-11-01T21:21:35.827Z,11.16
2022-11-01T21:24:32.334Z,11.00
2022-11-01T21:27:11.313Z,10.89
2022-11-01T21:29:44.793Z,10.80
2022-11-01T21:32:45.113Z,10.86
2022-11-01T21:35:38.186Z,10.99
2022-11-01T21:38:35.842Z,11.00
2022-11-01T21:41:23.883Z,10.94
2022-11-01T21:43:51.781Z,10.86
2022-11-01T21:46:24.762Z,10.89
2022-11-01T21:48:57.617Z,10.95
2022-11-01T21:51:24.883Z,10.78
2022-11-01T21:53:51.709Z,10.68
2022-11-01T21:56:18.657Z,10.67
2022-11-01T21:58:45.619Z,10.73
2022-11-01T22:01:13.441Z,10.79
2022-11-01T22:03:40.359Z,10.76
2022-11-01T22:06:07.403Z,10.76
2022-11-01T22:08:38.646Z,10.80
2022-11-01T22:11:05.589Z,10.68
2022-11-01T22:13:32.357Z,10.66
2022-11-01T22:15:59.150Z,10.69
2022-11-01T22:18:25.923Z,10.68
2022-11-01T22:20:52.996Z,10.71
2022-11-01T22:23:19.903Z,10.59
2022-11-01T22:25:47.417Z,10.59
2022-11-01T22:28:14.185Z,10.66
2022-11-01T22:30:41.012Z,10.55
2022-11-01T22:33:09.107Z,10.47
2022-11-01T22:35:36.001Z,10.43
2022-11-01T22:38:23.486Z,10.43
2022-11-01T22:41:22.589Z,10.44
2022-11-01T22:43:50.556Z,10.45
2022-11-01T22:46:26.182Z,10.43
2022-11-01T22:49:06.469Z,10.36
2022-11-01T22:51:43.959Z,10.37
2022-11-01T22:54:22.684Z,10.27
2022-11-01T22:57:20.707Z,10.16
2022-11-01T22:59:59.834Z,10.22
2022-11-01T23:02:32.126Z,10.23
2022-11-01T23:05:07.927Z,10.20
2022-11-01T23:07:39.764Z,10.22
2022-11-01T23:10:34.784Z,10.20
2022-11-01T23:13:28.668Z,10.23
2022-11-01T23:16:00.202Z,10.19
2022-11-01T23:18:32.024Z,10.27
2022-11-01T23:21:06.897Z,10.21
2022-11-01T23:23:42.494Z,10.06
2022-11-01T23:26:10.314Z,10.09
2022-11-01T23:28:44.114Z,10.09
2022-11-01T23:31:11.956Z,10.13
2022-11-01T23:33:45.270Z,10.03
2022-11-01T23:36:33.756Z,10.00
2022-11-01T23:39:12.478Z,10.04
2022-11-01T23:41:53.052Z,10.02
2022-11-01T23:44:32.495Z,9.98
2022-11-01T23:47:25.852Z,9.98
2022-11-01T23:50:01.752Z,10.04
2022-11-01T23:52:42.132Z,10.01
2022-11-01T23:55:36.327Z,9.92
2022-11-01T23:58:07.358Z,9.75
